Altona, Argentina
Current Conditions -  °F | °C
As of 9:00 AM on Sunday 23 Nov 2014 (Local Time) from SAEZ Reporting Station
Clear Clear  
Wind Chill: 72°   Ceiling: Unl
Heat Index: 72°   Visibility: 6mi
Dew Point: 54°   Wind: 12mph
Humidity: 53%   Direction: 330°NNW
Pressure: 29.88"   Gusts: NA
Location:  36.41°S, 60.07°W
Report Text: SAEZ 231200Z 33010KT CAVOK 22/12 Q1012
Loading
Personal Weather Stations






























Interactive Weather Map New forecast layout! Learn more

10-Day Weather Forecast

Advertisements
Track Severe Weather on mobile